createdAt,value
2022-12-25T00:02:40.005Z,6.80
2022-12-25T00:07:38.810Z,6.30
2022-12-25T00:12:37.638Z,8.60
2022-12-25T00:17:36.455Z,3.65
2022-12-25T00:22:35.413Z,9.98
2022-12-25T00:27:34.464Z,7.57
2022-12-25T00:32:36.667Z,7.35
2022-12-25T00:37:35.575Z,7.63
2022-12-25T00:42:34.519Z,5.57
2022-12-25T00:47:33.504Z,9.13
2022-12-25T00:52:32.748Z,7.03
2022-12-25T00:57:32.069Z,8.23
2022-12-25T01:02:31.056Z,10.88
2022-12-25T01:07:29.869Z,12.40
2022-12-25T01:12:29.535Z,6.40
2022-12-25T01:17:28.468Z,6.15
2022-12-25T01:22:27.833Z,7.47
2022-12-25T01:27:26.856Z,6.93
2022-12-25T01:32:26.045Z,6.18
2022-12-25T01:37:25.654Z,9.50
2022-12-25T01:42:24.603Z,8.15
2022-12-25T01:47:23.411Z,8.02
2022-12-25T01:52:25.217Z,8.77
2022-12-25T01:57:31.153Z,10.13
2022-12-25T02:02:30.223Z,7.63
2022-12-25T02:07:32.896Z,5.60
2022-12-25T02:12:34.696Z,9.50
2022-12-25T02:17:33.590Z,4.65
2022-12-25T02:23:03.558Z,5.93
2022-12-25T02:28:24.807Z,5.63
2022-12-25T02:33:54.482Z,7.25
2022-12-25T02:39:18.775Z,6.25
2022-12-25T02:44:40.821Z,5.97
2022-12-25T02:50:01.362Z,6.70
2022-12-25T02:55:28.005Z,6.80
2022-12-25T03:00:45.863Z,6.95
2022-12-25T03:06:04.238Z,5.68
2022-12-25T03:11:27.826Z,6.55
2022-12-25T03:16:45.519Z,7.53
2022-12-25T03:22:03.227Z,5.43
2022-12-25T03:27:02.388Z,7.72
2022-12-25T03:32:22.855Z,4.22
2022-12-25T03:37:48.031Z,8.75
2022-12-25T03:43:12.534Z,7.60
2022-12-25T03:48:30.794Z,6.28
2022-12-25T03:53:54.296Z,5.20
2022-12-25T03:59:22.831Z,9.82
2022-12-25T04:04:40.804Z,9.13
2022-12-25T04:09:58.430Z,5.90
2022-12-25T04:15:15.902Z,8.88
2022-12-25T04:20:34.005Z,8.98
2022-12-25T04:25:51.880Z,6.03
2022-12-25T04:31:09.413Z,8.10
2022-12-25T04:36:14.365Z,4.57
2022-12-25T04:41:14.309Z,6.82
2022-12-25T04:46:13.243Z,7.68
2022-12-25T04:51:18.609Z,7.22
2022-12-25T04:56:17.732Z,5.70
2022-12-25T05:01:16.740Z,10.02
2022-12-25T05:06:16.097Z,4.53
2022-12-25T05:11:16.631Z,6.05
2022-12-25T05:16:20.471Z,4.75
2022-12-25T05:21:20.214Z,5.85
2022-12-25T05:26:22.274Z,9.25
2022-12-25T05:31:21.870Z,8.98
2022-12-25T05:36:21.086Z,6.28
2022-12-25T05:41:20.148Z,5.63
2022-12-25T05:46:19.029Z,5.05
2022-12-25T05:51:17.831Z,7.07
2022-12-25T05:56:16.758Z,8.15
2022-12-25T06:01:21.757Z,8.27
2022-12-25T06:06:20.598Z,8.20
2022-12-25T06:11:19.787Z,5.85
2022-12-25T06:16:19.452Z,5.00
2022-12-25T06:21:18.438Z,8.25
2022-12-25T06:26:19.533Z,8.13
2022-12-25T06:31:21.178Z,6.72
2022-12-25T06:36:23.531Z,7.50
2022-12-25T06:41:24.528Z,7.93
2022-12-25T06:46:25.370Z,7.35
2022-12-25T06:51:27.628Z,11.60
2022-12-25T06:56:28.199Z,9.70
2022-12-25T07:01:31.065Z,9.23
2022-12-25T07:06:30.528Z,8.15
2022-12-25T07:11:29.448Z,11.05
2022-12-25T07:16:28.689Z,7.70
2022-12-25T07:21:27.636Z,8.77
2022-12-25T07:26:26.802Z,9.20
2022-12-25T07:31:25.753Z,6.93
2022-12-25T07:36:24.998Z,9.77
2022-12-25T07:41:24.196Z,10.98
2022-12-25T07:46:23.568Z,6.55
2022-12-25T07:51:23.614Z,10.88
2022-12-25T07:56:22.715Z,9.20
2022-12-25T08:01:29.760Z,8.40
2022-12-25T08:06:34.941Z,13.38
2022-12-25T08:11:33.748Z,8.35
2022-12-25T08:16:32.986Z,9.18
2022-12-25T08:21:31.951Z,8.93
2022-12-25T08:26:30.915Z,11.65
2022-12-25T08:31:30.797Z,9.13
2022-12-25T08:36:30.056Z,9.68
2022-12-25T08:41:29.052Z,13.32
2022-12-25T08:46:27.897Z,9.73
2022-12-25T08:51:26.927Z,12.23
2022-12-25T08:56:25.866Z,13.52
2022-12-25T09:01:25.031Z,11.77
2022-12-25T09:06:24.106Z,11.25
2022-12-25T09:11:23.859Z,11.52
2022-12-25T09:16:23.285Z,11.43
2022-12-25T09:21:22.324Z,12.13
2022-12-25T09:26:21.201Z,12.55
2022-12-25T09:31:22.691Z,10.43
2022-12-25T09:36:23.637Z,10.00
2022-12-25T09:41:34.295Z,8.90
2022-12-25T09:46:41.276Z,8.35
2022-12-25T09:51:44.559Z,12.70
2022-12-25T09:56:43.393Z,11.15
2022-12-25T10:01:55.225Z,11.38
2022-12-25T10:07:12.652Z,11.00
2022-12-25T10:12:30.116Z,9.70
2022-12-25T10:18:07.671Z,10.18
2022-12-25T10:23:14.782Z,11.13
2022-12-25T10:28:19.463Z,11.05
2022-12-25T10:33:18.564Z,9.68
2022-12-25T10:38:19.485Z,9.07
2022-12-25T10:43:24.826Z,10.30
2022-12-25T10:48:30.148Z,11.40
2022-12-25T10:53:39.287Z,10.65
2022-12-25T11:03:45.162Z,11.93
2022-12-25T11:08:51.927Z,10.48
2022-12-25T11:14:00.398Z,9.77
2022-12-25T11:19:00.056Z,12.65
2022-12-25T11:24:03.586Z,8.63
2022-12-25T11:29:03.208Z,10.27
2022-12-25T11:34:36.788Z,8.23
2022-12-25T11:39:38.481Z,10.23
2022-12-25T11:44:46.469Z,9.93
2022-12-25T11:50:00.213Z,8.60
2022-12-25T11:55:14.189Z,9.88
2022-12-25T12:00:15.609Z,9.13
2022-12-25T12:05:24.179Z,8.68
2022-12-25T12:10:27.945Z,3.45
2022-12-25T12:15:31.123Z,10.35
2022-12-25T12:20:32.377Z,9.52
2022-12-25T12:25:31.528Z,9.45
2022-12-25T12:30:34.767Z,10.32
2022-12-25T12:35:38.068Z,12.30
2022-12-25T12:40:42.668Z,12.32
2022-12-25T12:45:42.058Z,12.27
2022-12-25T12:50:42.520Z,9.30
2022-12-25T12:55:41.328Z,8.32
2022-12-25T13:01:00.607Z,8.63
2022-12-25T13:06:10.224Z,9.07
2022-12-25T13:11:28.260Z,10.73
2022-12-25T13:16:41.724Z,8.75
2022-12-25T13:21:41.083Z,10.25
2022-12-25T13:26:40.084Z,10.68
2022-12-25T13:31:41.081Z,12.02
2022-12-25T13:36:40.453Z,11.93
2022-12-25T13:42:04.058Z,11.45
2022-12-25T13:47:23.772Z,9.00
2022-12-25T13:52:34.065Z,8.45
2022-12-25T13:57:39.727Z,9.55
2022-12-25T14:02:39.517Z,10.95
2022-12-25T14:07:39.035Z,9.32
2022-12-25T14:12:38.264Z,13.48
2022-12-25T14:17:37.410Z,10.10
2022-12-25T14:22:38.649Z,10.50
2022-12-25T14:27:37.726Z,8.20
2022-12-25T14:32:43.174Z,8.38
2022-12-25T14:37:42.593Z,7.70
2022-12-25T14:42:41.509Z,8.85
2022-12-25T14:47:54.503Z,7.90
2022-12-25T14:52:54.020Z,12.60
2022-12-25T14:58:06.367Z,13.32
2022-12-25T15:03:17.439Z,10.50
2022-12-25T15:08:24.801Z,10.25
2022-12-25T15:13:25.579Z,10.10
2022-12-25T15:18:27.753Z,11.88
2022-12-25T15:23:26.504Z,14.38
2022-12-25T15:28:25.382Z,13.38
2022-12-25T15:33:24.202Z,12.63
2022-12-25T15:38:23.445Z,13.57
2022-12-25T15:43:39.872Z,12.55
2022-12-25T15:48:39.624Z,12.27
2022-12-25T15:53:38.433Z,13.48
2022-12-25T15:58:37.611Z,11.13
2022-12-25T16:03:36.834Z,13.80
2022-12-25T16:08:35.645Z,12.15
2022-12-25T16:13:35.437Z,14.77
2022-12-25T16:18:34.502Z,13.43
2022-12-25T16:23:33.282Z,17.33
2022-12-25T16:28:32.175Z,17.13
2022-12-25T16:33:31.578Z,19.05
2022-12-25T16:38:31.704Z,22.90
2022-12-25T16:43:30.457Z,14.85
2022-12-25T16:48:29.207Z,12.32
2022-12-25T16:53:29.931Z,13.73
2022-12-25T16:58:28.667Z,14.75
2022-12-25T17:03:27.596Z,15.05
2022-12-25T17:08:29.137Z,17.73
2022-12-25T17:13:27.891Z,14.25
2022-12-25T17:18:26.958Z,15.88
2022-12-25T17:23:26.415Z,17.58
2022-12-25T17:28:25.382Z,16.30
2022-12-25T17:33:24.215Z,19.73
2022-12-25T17:38:23.057Z,15.13
2022-12-25T17:43:21.945Z,15.40
2022-12-25T17:48:20.818Z,16.40
2022-12-25T17:53:19.659Z,16.83
2022-12-25T17:58:18.405Z,23.20
2022-12-25T18:03:17.602Z,24.10
2022-12-25T18:08:16.466Z,21.80
2022-12-25T18:13:15.231Z,21.08
2022-12-25T18:18:14.164Z,16.67
2022-12-25T18:23:13.078Z,15.68
2022-12-25T18:28:12.502Z,16.83
2022-12-25T18:33:11.616Z,18.50
2022-12-25T18:38:11.367Z,13.68
2022-12-25T18:43:10.897Z,18.58
2022-12-25T18:48:10.536Z,15.43
2022-12-25T18:53:09.476Z,15.07
2022-12-25T18:58:08.278Z,13.82
2022-12-25T19:03:07.156Z,16.45
2022-12-25T19:08:06.781Z,14.95
2022-12-25T19:13:06.293Z,13.15
2022-12-25T19:18:05.043Z,14.40
2022-12-25T19:23:03.883Z,16.77
2022-12-25T19:28:02.723Z,13.38
2022-12-25T19:33:01.598Z,11.25
2022-12-25T19:38:00.375Z,11.07
2022-12-25T19:42:59.077Z,12.43
2022-12-25T19:47:58.278Z,11.15
2022-12-25T19:52:57.093Z,11.32
2022-12-25T19:57:58.251Z,8.90
2022-12-25T20:02:57.106Z,10.15
2022-12-25T20:07:57.636Z,11.75
2022-12-25T20:12:56.504Z,11.48
2022-12-25T20:17:55.361Z,10.25
2022-12-25T20:22:54.089Z,10.77
2022-12-25T20:27:52.885Z,11.68
2022-12-25T20:32:51.771Z,8.80
2022-12-25T20:37:50.722Z,12.45
2022-12-25T20:42:49.535Z,12.30
2022-12-25T20:47:48.442Z,8.95
2022-12-25T20:52:47.160Z,10.30
2022-12-25T20:57:47.325Z,11.88
2022-12-25T21:02:46.343Z,10.85
2022-12-25T21:07:45.224Z,13.48
2022-12-25T21:12:44.012Z,12.98
2022-12-25T21:17:43.942Z,10.95
2022-12-25T21:22:42.755Z,8.82
2022-12-25T21:27:41.480Z,19.02
2022-12-25T21:32:59.345Z,9.95
2022-12-25T21:37:58.286Z,12.35
2022-12-25T21:42:57.190Z,12.38
2022-12-25T21:48:01.336Z,10.90
2022-12-25T21:53:02.377Z,11.15
2022-12-25T21:58:02.016Z,11.13
2022-12-25T22:03:01.158Z,16.13
2022-12-25T22:08:00.238Z,14.25
2022-12-25T22:13:17.653Z,9.00
2022-12-25T22:18:35.063Z,11.48
2022-12-25T22:23:33.847Z,10.55
2022-12-25T22:28:32.724Z,13.65
2022-12-25T22:33:31.809Z,9.43
2022-12-25T22:38:30.996Z,9.70
2022-12-25T22:44:06.346Z,11.10
2022-12-25T22:48:48.492Z,10.00
2022-12-25T22:53:47.216Z,9.05
2022-12-25T22:58:46.025Z,12.65
2022-12-25T23:03:44.838Z,11.45
2022-12-25T23:08:43.588Z,13.77
2022-12-25T23:14:00.848Z,12.02
2022-12-25T23:19:18.121Z,10.20
2022-12-25T23:24:35.455Z,10.75
2022-12-25T23:29:37.066Z,13.60
2022-12-25T23:34:38.227Z,12.80
2022-12-25T23:39:37.517Z,10.65
2022-12-25T23:44:36.323Z,10.32
2022-12-25T23:49:35.269Z,11.73
2022-12-25T23:54:34.239Z,10.18
2022-12-25T23:59:33.327Z,9.15
